首页
METAR-TAF:

METAR-TAF

机场 :

布爾諾, 捷克共和国

纬度: 49-09N, 经度: 016-42E, 海拔: 241米

当前天气观测

该预报发布于16分钟前的00:00 UTC
风速2节,风向多变
温度 20°C
湿度 73%
气压 1023 hPa
能见度10公里或以上
1500米以下无云,无积雨云

METAR: LKTB 250000Z VRB02KT CAVOK 20/15 Q1023 NOSIG

时间: 02:16 (00:16 UTC)

预报

该预报发布于1小时和16分钟前的23:00 UTC
预报有效从25日的 00点(UTC)到 26日的 06点(UTC)
风速6节,风向东转东北
能见度10公里或以上
1500米以下无云,无积雨云
成为
从 25日的 07点(UTC)到 25日的 10点(UTC)
风速6节,风向南转南东
成为
从 25日的 23点(UTC)到 26日的 01点(UTC)
风速2节,风向多变

TAF: LKTB 242300Z 2500/2606 06006KT CAVOK BECMG 2507/2510 16006KT BECMG 2523/2601 VRB02KT

超过4000个机场的气象观测和天气预报(METAR&TAF报告)。

可查询的气象台以黄色和红色小点在地图上表示。

将鼠标移到小点上方,可查看气象台名称。

然后点击查看天气观测和预报。

如需切换地图:点击带黑十字的绿色按钮放大地图;点击带横线的绿色按钮缩小地图;或者点击绿色箭头查看邻近地区的地图。


METAR-TAF: